Impacts TAF Board INFO
FOR SITUATIONAL AWARENESS. NOT TO BE USED FOR FLIGHT PLANNING PURPOSES.
IDs:

KCVG - Cincinnati Intl, KY, US

Issued at 1123 UTC 19 Nov 2017
Updated at 1415 UTC 19 Nov 2017
Potential Impact None Slight Moderate High
Time<<20/03Z 20/04Z 20/05Z 20/06Z 20/07Z 20/08Z 20/09Z 20/10Z 20/11Z 20/12Z 20/13Z 20/14Z 20/15Z>>
Type PRVL PRVL PRVL PRVL PRVL PRVL PRVL PRVL PRVL PRVL PRVL PRVL PRVL
VIS >6 >6 >6 >6 >6 >6 >6 >6 >6 >6 >6 >6 >6
CIG -- -- -- -- -- -- -- -- -- -- -- -- --
Cover SCT SCT SCT SKC SKC SKC SKC SKC SKC SKC SKC SKC SCT
FltCat VFR VFR VFR VFR VFR VFR VFR VFR VFR VFR VFR VFR VFR
WX -- -- -- -- -- -- -- -- -- -- -- -- --
WDir 280 280 280 250 250 250 250 210 210 210 210 210 210
WSpd 10 10 10 5 5 5 5 5 5 5 5 5 10
WGst -- -- -- -- -- -- -- -- -- -- -- -- --

Raw TAF
KCVG 191123Z 1912/2018 29010G18KT P6SM OVC035
  FM192200 28010KT P6SM SCT035
  FM200600 25005KT P6SM SKC
  FM201000 21005KT P6SM SKC
  FM201500 21010KT P6SM SCT250


METAR Board
Radar Display
Forecast Discussion

FOR SITUATIONAL AWARENESS. NOT TO BE USED FOR FLIGHT PLANNING PURPOSES.